Time;durP1;ratioP1;P1;durP2;ratioP2;P2;SDS_P1;SDS_P2;PMS_P1;PMS_P2;Temp;Humidity;BMP_temperature;BMP_pressure;BME280_temperature;BME280_humidity;BME280_pressure;Samples;Min_cycle;Max_cycle;Signal;HPM_P1;HPM_P2
2022/11/22 00:02:09;;;;;;;24.70;11.50;;;;;;;-3.60;76.01;99296.06;4920199;28;20051;-66
2022/11/22 00:04:33;;;;;;;26.90;13.27;;;;;;;-3.66;76.51;99280.56;4919811;28;20038;-66
2022/11/22 00:06:59;;;;;;;28.75;12.85;;;;;;;-3.71;76.42;99278.03;4903478;29;20051;-66
2022/11/22 00:09:23;;;;;;;20.67;11.48;;;;;;;-3.60;76.34;99284.78;4893585;28;20154;-65
2022/11/22 00:11:48;;;;;;;17.13;8.93;;;;;;;-3.52;76.38;99275.09;4920291;28;20133;-65
2022/11/22 00:14:13;;;;;;;20.40;10.50;;;;;;;-3.61;76.41;99277.88;4920887;28;20079;-72
2022/11/22 00:16:37;;;;;;;20.17;10.95;;;;;;;-3.68;76.56;99270.19;4920524;28;20082;-72
2022/11/22 00:19:02;;;;;;;18.77;10.43;;;;;;;-3.67;76.59;99263.22;4923734;28;20039;-75
2022/11/22 00:21:27;;;;;;;19.60;7.10;;;;;;;-3.50;76.81;99266.31;4919432;28;20058;-71
2022/11/22 00:23:57;;;;;;;18.88;9.15;;;;;;;-3.49;76.51;99261.97;4902958;29;20054;-71
2022/11/22 00:26:23;;;;;;;17.35;7.97;;;;;;;-3.34;76.02;99256.44;4920249;28;20831;-72
2022/11/22 00:28:48;;;;;;;23.05;10.88;;;;;;;-3.38;75.64;99258.25;4909232;29;20039;-71
2022/11/22 00:31:12;;;;;;;31.73;11.77;;;;;;;-3.46;75.95;99267.97;4934651;28;20062;-70
2022/11/22 00:33:37;;;;;;;27.50;13.18;;;;;;;-3.48;75.83;99243.69;4935192;28;20043;-75
2022/11/22 00:36:01;;;;;;;24.05;11.15;;;;;;;-3.49;75.84;99252.41;4935606;28;20042;-71
2022/11/22 00:38:26;;;;;;;27.55;12.80;;;;;;;-3.52;75.98;99239.47;4934644;28;20054;-70
2022/11/22 00:40:51;;;;;;;28.85;13.13;;;;;;;-3.47;76.08;99245.41;4935770;28;20043;-70
2022/11/22 00:43:15;;;;;;;19.98;7.68;;;;;;;-3.22;75.86;99237.06;4935776;28;20047;-70
2022/11/22 00:45:40;;;;;;;15.88;7.32;;;;;;;-3.28;75.40;99245.03;4935746;28;20058;-72
2022/11/22 00:48:05;;;;;;;10.23;5.75;;;;;;;-3.31;75.57;99240.75;4902320;28;20042;-71
2022/11/22 00:50:30;;;;;;;26.27;13.98;;;;;;;-3.36;75.49;99234.75;4936269;28;20150;-70
2022/11/22 00:52:54;;;;;;;21.75;10.93;;;;;;;-3.49;75.72;99235.91;4913924;29;20050;-70
2022/11/22 00:55:19;;;;;;;24.13;10.32;;;;;;;-3.33;76.17;99232.94;4898238;29;20039;-70
2022/11/22 00:57:43;;;;;;;16.65;8.63;;;;;;;-3.21;75.92;99224.00;4926950;28;20039;-72
2022/11/22 01:00:08;;;;;;;15.15;8.32;;;;;;;-3.10;75.51;99221.16;4915876;29;20446;-71
2022/11/22 01:02:33;;;;;;;23.80;11.45;;;;;;;-3.29;75.02;99205.09;4907777;29;20058;-73
2022/11/22 01:04:58;;;;;;;16.83;9.00;;;;;;;-3.35;75.57;99224.31;4872655;29;20047;-72
2022/11/22 01:07:22;;;;;;;22.40;10.73;;;;;;;-3.45;75.66;99216.72;4923435;28;20113;-72
2022/11/22 01:09:47;;;;;;;17.90;8.80;;;;;;;-3.18;76.00;99220.47;4924972;28;20047;-72
2022/11/22 01:12:11;;;;;;;14.45;7.45;;;;;;;-3.16;75.55;99205.66;4892466;28;20089;-66
2022/11/22 01:14:36;;;;;;;11.02;4.55;;;;;;;-3.26;75.67;99197.16;4921589;28;20039;-71
2022/11/22 01:17:01;;;;;;;26.35;12.90;;;;;;;-3.31;75.71;99189.47;4878873;29;20055;-70
2022/11/22 01:19:25;;;;;;;22.38;10.98;;;;;;;-3.28;75.79;99188.56;4911595;29;20062;-71
2022/11/22 01:21:50;;;;;;;15.00;7.97;;;;;;;-3.18;76.21;99189.19;4901849;29;20541;-70
2022/11/22 01:24:15;;;;;;;18.08;8.35;;;;;;;-3.08;76.08;99180.25;4860719;29;20076;-71
2022/11/22 01:26:39;;;;;;;17.67;9.32;;;;;;;-3.17;75.86;99178.75;4861016;29;20131;-70
2022/11/22 01:29:04;;;;;;;19.25;8.85;;;;;;;-3.22;76.25;99190.16;4863146;29;20052;-70
2022/11/22 01:31:29;;;;;;;29.58;12.73;;;;;;;-3.34;76.07;99183.47;4863884;29;20048;-70
2022/11/22 01:33:53;;;;;;;15.48;8.00;;;;;;;-3.25;76.47;99174.56;4861537;29;20528;-70
2022/11/22 01:36:18;;;;;;;18.75;10.18;;;;;;;-3.25;76.37;99179.78;4862321;29;20060;-70
2022/11/22 01:38:42;;;;;;;20.90;10.55;;;;;;;-3.23;76.14;99160.63;4863925;29;20468;-70
2022/11/22 01:41:07;;;;;;;23.95;10.25;;;;;;;-3.20;76.07;99163.16;4863698;29;20104;-71
2022/11/22 01:43:32;;;;;;;26.67;12.98;;;;;;;-3.31;76.37;99155.59;4862079;29;20525;-71
2022/11/22 01:46:01;;;;;;;24.05;12.25;;;;;;;-3.40;76.62;99152.34;4860402;29;20076;-70
2022/11/22 01:48:46;;;;;;;23.40;12.07;;;;;;;-3.36;76.65;99139.19;4860000;29;20138;-71
2022/11/22 01:51:14;;;;;;;18.23;8.25;;;;;;;-3.27;76.64;99151.16;4859977;29;20044;-70
2022/11/22 01:53:39;;;;;;;24.15;11.60;;;;;;;-3.43;76.63;99135.03;4859760;29;20044;-68
2022/11/22 01:56:09;;;;;;;27.40;12.98;;;;;;;-3.37;77.14;99131.41;4859763;29;20057;-67
2022/11/22 01:58:36;;;;;;;20.73;11.30;;;;;;;-3.46;77.02;99126.41;4859839;29;20144;-67
2022/11/22 02:01:01;;;;;;;26.75;12.68;;;;;;;-3.49;77.48;99127.34;4868245;29;20060;-67
2022/11/22 02:03:28;;;;;;;22.63;11.07;;;;;;;-3.51;77.36;99128.28;4898994;29;20529;-67
2022/11/22 02:05:53;;;;;;;23.05;11.77;;;;;;;-3.47;77.61;99114.28;4899336;29;20051;-67
2022/11/22 02:08:34;;;;;;;24.48;13.15;;;;;;;-3.33;77.41;99117.41;4899615;29;20055;-69
2022/11/22 02:11:01;;;;;;;25.80;12.60;;;;;;;-3.33;77.09;99107.00;4885541;29;20043;-69
2022/11/22 02:13:26;;;;;;;28.15;13.00;;;;;;;-3.35;77.04;99103.56;4899064;29;20067;-70
2022/11/22 02:16:11;;;;;;;26.42;12.10;;;;;;;-3.42;77.22;99102.88;4877428;29;20048;-69
2022/11/22 02:18:36;;;;;;;25.58;13.07;;;;;;;-3.44;77.20;99106.41;4893381;29;20446;-68
2022/11/22 02:21:02;;;;;;;20.50;11.07;;;;;;;-3.20;77.57;99103.19;4883078;29;20418;-68
2022/11/22 02:23:53;;;;;;;29.65;12.60;;;;;;;-3.19;77.23;99094.50;4864905;29;20048;-70
2022/11/22 02:26:18;;;;;;;23.77;12.57;;;;;;;-3.38;77.50;99085.38;4888829;29;20071;-68
2022/11/22 02:28:43;;;;;;;17.02;8.30;;;;;;;-3.15;77.35;99084.81;4870138;29;20094;-68
2022/11/22 02:31:08;;;;;;;24.77;8.95;;;;;;;-3.17;77.09;99082.28;4882906;29;20118;-69
2022/11/22 02:33:32;;;;;;;28.55;12.82;;;;;;;-3.31;76.98;99082.63;4899366;29;20134;-68
2022/11/22 02:35:57;;;;;;;26.20;12.43;;;;;;;-3.44;77.39;99075.13;4898358;29;20518;-69
2022/11/22 02:38:31;;;;;;;20.02;10.63;;;;;;;-3.24;77.95;99091.13;4899669;29;20044;-68
2022/11/22 02:41:01;;;;;;;26.90;10.80;;;;;;;-3.30;77.51;99071.31;4900453;29;20054;-68
2022/11/22 02:43:30;;;;;;;25.40;13.20;;;;;;;-3.32;77.99;99072.22;4900078;29;20131;-68
2022/11/22 02:45:55;;;;;;;23.70;12.73;;;;;;;-3.30;77.68;99067.84;4898815;29;20048;-69
2022/11/22 02:48:19;;;;;;;12.73;6.30;;;;;;;-3.20;78.08;99058.03;4898446;29;20062;-68
2022/11/22 02:50:44;;;;;;;13.02;6.72;;;;;;;-3.10;77.64;99043.84;4882173;29;20043;-69
2022/11/22 02:53:10;;;;;;;25.73;13.80;;;;;;;-3.28;77.98;99049.56;4901278;29;20123;-71
2022/11/22 02:55:35;;;;;;;13.38;6.90;;;;;;;-3.22;77.92;99060.66;4872240;29;20459;-67
2022/11/22 02:58:00;;;;;;;19.98;9.77;;;;;;;-2.95;77.66;99033.91;4908026;29;20107;-69
2022/11/22 03:00:25;;;;;;;16.85;8.95;;;;;;;-3.06;77.33;99035.94;4891049;29;20063;-68
2022/11/22 03:02:50;;;;;;;22.83;11.00;;;;;;;-3.20;77.73;99032.81;4900681;29;20122;-68
2022/11/22 03:05:15;;;;;;;20.27;10.95;;;;;;;-3.07;77.72;99030.75;4908633;29;20044;-69
2022/11/22 03:07:39;;;;;;;17.23;8.68;;;;;;;-3.03;77.96;99032.38;4907743;29;20186;-67
2022/11/22 03:10:04;;;;;;;28.48;12.75;;;;;;;-3.05;77.83;99028.97;4911076;29;20069;-68
2022/11/22 03:12:29;;;;;;;26.80;12.23;;;;;;;-3.07;77.53;99012.50;4909944;29;20035;-68
2022/11/22 03:14:53;;;;;;;24.92;11.85;;;;;;;-3.23;77.77;99014.66;4892756;29;20132;-68
2022/11/22 03:17:18;;;;;;;27.30;11.68;;;;;;;-3.28;78.11;99019.16;4923699;28;20498;-67
2022/11/22 03:19:42;;;;;;;22.38;11.45;;;;;;;-3.30;78.51;99018.31;4900685;28;20070;-67
2022/11/22 03:22:07;;;;;;;24.83;11.70;;;;;;;-3.27;78.68;99012.19;4894660;28;20047;-65
2022/11/22 03:24:32;;;;;;;17.95;9.23;;;;;;;-3.00;79.08;98995.78;4897113;29;20044;-65
2022/11/22 03:26:57;;;;;;;14.60;7.97;;;;;;;-2.91;78.12;99003.34;4896641;29;20046;-67
2022/11/22 03:29:21;;;;;;;11.38;6.57;;;;;;;-2.85;78.09;99000.59;4900557;29;20043;-66
2022/11/22 03:31:46;;;;;;;23.35;12.60;;;;;;;-3.08;78.31;98997.75;4911661;28;20087;-66
2022/11/22 03:34:11;;;;;;;16.48;8.45;;;;;;;-2.88;78.25;99005.88;4920355;28;20075;-66
2022/11/22 03:36:36;;;;;;;15.85;7.10;;;;;;;-2.85;78.35;98995.38;4899426;29;20037;-65
2022/11/22 03:39:01;;;;;;;15.73;8.25;;;;;;;-2.83;78.15;98988.38;4910840;28;20054;-66
2022/11/22 03:41:25;;;;;;;27.80;11.88;;;;;;;-2.91;77.93;98992.91;4914811;28;20098;-67
2022/11/22 03:43:50;;;;;;;22.85;11.02;;;;;;;-3.00;78.21;98985.34;4920258;28;20051;-69
2022/11/22 03:46:16;;;;;;;19.33;9.70;;;;;;;-3.08;78.68;98992.53;4890443;29;20036;-71
2022/11/22 03:48:41;;;;;;;19.45;10.15;;;;;;;-3.14;78.95;98972.69;4902730;29;20039;-68
2022/11/22 03:51:07;;;;;;;17.15;7.72;;;;;;;-3.10;79.46;98978.69;4892058;29;20042;-70
2022/11/22 03:53:32;;;;;;;22.48;9.63;;;;;;;-3.11;79.22;98972.63;4917751;28;20079;-70
2022/11/22 03:55:57;;;;;;;21.95;10.38;;;;;;;-3.00;79.23;98974.94;4897095;29;20566;-68
2022/11/22 03:58:21;;;;;;;19.00;9.00;;;;;;;-2.80;79.19;98974.34;4915887;28;20418;-69
2022/11/22 04:00:46;;;;;;;20.98;10.30;;;;;;;-2.76;79.08;98966.41;4919861;28;20035;-68
2022/11/22 04:03:10;;;;;;;23.90;11.20;;;;;;;-2.85;78.99;98956.25;4919402;28;20520;-65
2022/11/22 04:05:35;;;;;;;13.20;7.88;;;;;;;-2.60;78.91;98962.47;4883347;29;20051;-68
2022/11/22 04:07:59;;;;;;;17.83;7.93;;;;;;;-2.52;78.33;98950.94;4883915;29;20118;-66
2022/11/22 04:10:25;;;;;;;25.63;11.68;;;;;;;-2.74;78.12;98937.69;4916906;28;20046;-66
2022/11/22 04:12:50;;;;;;;15.15;6.57;;;;;;;-2.76;78.21;98936.88;4920466;28;20911;-66
2022/11/22 04:15:15;;;;;;;18.77;9.95;;;;;;;-2.74;79.08;98927.25;4919718;28;20035;-66
2022/11/22 04:17:43;;;;;;;18.85;9.57;;;;;;;-2.75;78.67;98917.72;4902403;29;20046;-67
2022/11/22 04:22:59;;;;;;;19.05;9.40;;;;;;;-2.77;78.79;98922.97;4907879;28;20133;-65
2022/11/22 04:25:25;;;;;;;18.83;9.07;;;;;;;-2.83;78.76;98931.00;4902431;29;20560;-66
2022/11/22 04:27:52;;;;;;;19.27;10.90;;;;;;;-2.87;78.92;98923.28;4919405;28;20047;-65
2022/11/22 04:30:17;;;;;;;22.92;10.95;;;;;;;-2.82;79.15;98924.03;4902319;29;20047;-66
2022/11/22 04:32:44;;;;;;;19.20;11.25;;;;;;;-2.80;79.29;98920.44;4919034;28;20043;-66
2022/11/22 04:35:09;;;;;;;13.75;6.68;;;;;;;-2.81;79.66;98918.72;4919475;28;20070;-67
2022/11/22 04:37:34;;;;;;;17.60;9.02;;;;;;;-2.78;79.86;98923.88;4919068;28;20047;-65
2022/11/22 04:39:58;;;;;;;27.77;9.65;;;;;;;-2.74;79.73;98920.28;4919073;28;20070;-64
2022/11/22 04:45:06;;;;;;;7.32;4.90;;;;;;;-2.65;78.96;98895.66;4918941;28;20042;-67
2022/11/22 04:53:05;;;;;;;26.05;10.25;;;;;;;-2.66;78.77;98876.53;4860175;29;20214;-70
2022/11/22 04:55:29;;;;;;;22.13;8.38;;;;;;;-2.63;78.94;98883.44;4854636;29;20105;-69
2022/11/22 04:57:54;;;;;;;12.32;6.63;;;;;;;-2.65;79.39;98873.03;4851892;29;20059;-69
2022/11/22 05:00:18;;;;;;;13.38;6.78;;;;;;;-2.57;78.82;98872.78;4844136;29;20089;-69
2022/11/22 05:02:43;;;;;;;18.45;7.78;;;;;;;-2.53;79.02;98873.56;4827631;29;20041;-68
2022/11/22 05:05:08;;;;;;;22.60;11.63;;;;;;;-2.64;78.92;98872.13;4850489;29;20052;-69
2022/11/22 05:07:33;;;;;;;22.75;11.45;;;;;;;-2.68;79.31;98861.84;4844514;29;20048;-69
2022/11/22 05:09:57;;;;;;;16.63;8.45;;;;;;;-2.72;79.43;98861.09;4847576;29;20059;-69
2022/11/22 05:12:22;;;;;;;17.58;9.38;;;;;;;-2.78;79.72;98858.66;4853729;29;20131;-69
2022/11/22 05:14:47;;;;;;;15.38;6.70;;;;;;;-2.45;79.97;98868.94;4850309;29;20044;-68
2022/11/22 05:17:11;;;;;;;16.85;8.30;;;;;;;-2.38;79.42;98857.44;4857469;29;20147;-69
2022/11/22 05:19:36;;;;;;;19.23;9.45;;;;;;;-2.29;79.38;98855.38;4848445;29;20407;-69
2022/11/22 05:22:00;;;;;;;9.50;5.57;;;;;;;-2.26;79.28;98849.22;4843693;29;20055;-69
2022/11/22 05:24:25;;;;;;;9.30;6.45;;;;;;;-2.29;79.28;98865.81;4859198;29;20048;-68
2022/11/22 05:26:49;;;;;;;18.95;9.07;;;;;;;-2.39;79.53;98861.78;4859386;29;20053;-69
2022/11/22 05:29:14;;;;;;;14.32;7.07;;;;;;;-2.30;80.09;98863.25;4872819;28;20054;-69
2022/11/22 05:31:39;;;;;;;16.92;8.60;;;;;;;-2.16;79.88;98870.66;4918122;28;20035;-68
2022/11/22 05:34:04;;;;;;;10.63;5.60;;;;;;;-1.92;79.12;98855.00;4918102;28;20039;-69
2022/11/22 05:36:31;;;;;;;15.63;8.77;;;;;;;-2.15;78.93;98847.09;4919429;28;20050;-68
2022/11/22 05:38:56;;;;;;;9.25;6.22;;;;;;;-2.12;79.25;98836.53;4893124;29;20052;-70
2022/11/22 05:41:20;;;;;;;11.57;6.32;;;;;;;-1.93;79.76;98853.31;4912045;28;20055;-69
2022/11/22 05:43:45;;;;;;;14.15;7.57;;;;;;;-2.08;79.27;98837.28;4918566;28;20051;-70
2022/11/22 05:46:17;;;;;;;12.38;6.32;;;;;;;-1.94;79.66;98840.28;4886217;29;20047;-69
2022/11/22 05:48:44;;;;;;;16.40;6.75;;;;;;;-1.74;79.38;98843.06;4868698;29;20047;-69
2022/11/22 05:51:15;;;;;;;13.10;6.88;;;;;;;-1.82;79.24;98826.81;4910403;28;20039;-70
2022/11/22 05:53:41;;;;;;;13.65;7.03;;;;;;;-1.98;79.26;98823.88;4901339;29;20051;-69
2022/11/22 05:56:11;;;;;;;11.98;5.90;;;;;;;-1.92;79.91;98815.81;4918401;28;20122;-69
2022/11/22 05:58:36;;;;;;;8.52;4.07;;;;;;;-1.75;80.49;98817.84;4917683;28;20054;-69
2022/11/22 06:01:03;;;;;;;15.20;7.45;;;;;;;-1.79;80.03;98810.16;4917445;28;20055;-70
2022/11/22 06:03:27;;;;;;;13.90;5.70;;;;;;;-1.89;79.88;98810.50;4917606;28;20414;-69
2022/11/22 06:05:52;;;;;;;17.02;8.05;;;;;;;-1.88;80.24;98800.91;4918331;28;20787;-69
2022/11/22 06:08:16;;;;;;;10.35;5.53;;;;;;;-1.86;80.84;98813.00;4917718;28;20498;-70
2022/11/22 06:10:41;;;;;;;15.93;8.02;;;;;;;-1.77;80.51;98803.13;4917295;28;20046;-68
2022/11/22 06:13:06;;;;;;;8.80;4.82;;;;;;;-1.55;80.38;98793.63;4917776;28;20058;-68
2022/11/22 06:15:30;;;;;;;14.00;7.90;;;;;;;-1.78;80.35;98797.03;4917457;28;20043;-69
2022/11/22 06:17:55;;;;;;;10.80;4.45;;;;;;;-1.72;80.72;98809.06;4885024;29;20049;-70
2022/11/22 06:20:19;;;;;;;9.52;4.97;;;;;;;-1.68;80.82;98803.66;4917897;28;20530;-70
2022/11/22 06:22:44;;;;;;;10.80;3.95;;;;;;;-1.65;80.68;98784.41;4904438;28;20055;-70
2022/11/22 06:25:09;;;;;;;13.02;6.57;;;;;;;-1.75;81.01;98799.56;4898601;29;20039;-69
2022/11/22 06:27:34;;;;;;;7.75;5.18;;;;;;;-1.73;81.09;98784.69;4902489;29;20059;-70
2022/11/22 06:29:58;;;;;;;11.15;5.65;;;;;;;-1.50;80.81;98783.84;4904516;29;20150;-70
2022/11/22 06:32:23;;;;;;;6.00;3.30;;;;;;;-1.53;80.77;98779.59;4921264;28;20043;-69
2022/11/22 06:34:47;;;;;;;8.70;5.43;;;;;;;-1.59;80.71;98803.34;4921655;28;20059;-70
2022/11/22 06:37:15;;;;;;;10.80;5.70;;;;;;;-1.60;80.86;98766.81;4921295;28;20106;-69
2022/11/22 06:39:40;;;;;;;9.50;4.68;;;;;;;-1.36;81.46;98767.66;4921003;28;20540;-69
2022/11/22 06:42:04;;;;;;;11.30;5.60;;;;;;;-1.31;80.92;98769.19;4921209;28;20502;-70
2022/11/22 06:44:29;;;;;;;6.00;3.47;;;;;;;-1.22;80.79;98774.06;4920237;28;20047;-69
2022/11/22 06:46:54;;;;;;;9.85;5.03;;;;;;;-1.06;80.61;98790.03;4885843;29;20166;-71
2022/11/22 06:49:19;;;;;;;10.05;5.88;;;;;;;-1.20;79.64;98760.94;4911452;28;20133;-68
2022/11/22 06:51:44;;;;;;;4.60;3.05;;;;;;;-1.20;80.02;98764.41;4891169;28;20055;-69
2022/11/22 06:54:11;;;;;;;11.52;4.35;;;;;;;-1.26;80.17;98782.97;4888572;29;20515;-70
2022/11/22 06:56:38;;;;;;;14.23;6.53;;;;;;;-1.47;80.50;98762.84;4910758;28;20142;-70
2022/11/22 06:59:04;;;;;;;5.13;3.65;;;;;;;-1.29;80.80;98770.00;4926693;28;20043;-70
2022/11/22 07:01:31;;;;;;;3.83;2.08;;;;;;;-1.10;80.44;98759.66;4923586;28;20051;-70
2022/11/22 07:03:57;;;;;;;8.82;4.45;;;;;;;-1.28;80.47;98752.53;4923738;28;20045;-70
2022/11/22 07:06:24;;;;;;;11.80;6.65;;;;;;;-1.34;80.66;98756.22;4923870;28;20139;-70
2022/11/22 07:08:49;;;;;;;10.18;4.32;;;;;;;-1.06;80.45;98750.81;4924790;28;20613;-71
2022/11/22 07:11:19;;;;;;;18.50;7.68;;;;;;;-1.19;80.46;98746.94;4922973;28;20588;-70
2022/11/22 07:13:44;;;;;;;11.20;5.63;;;;;;;-1.31;80.87;98743.03;4921524;28;20058;-69
2022/11/22 07:16:11;;;;;;;10.02;5.50;;;;;;;-1.25;81.28;98736.75;4921765;28;20055;-71
2022/11/22 07:18:36;;;;;;;4.95;3.50;;;;;;;-1.14;81.44;98745.88;4890384;29;20047;-70
2022/11/22 07:21:09;;;;;;;6.50;3.67;;;;;;;-1.06;81.42;98736.88;4923596;28;20051;-70
2022/11/22 07:23:34;;;;;;;5.57;2.50;;;;;;;-1.11;81.19;98743.13;4903771;29;20074;-70
2022/11/22 07:25:58;;;;;;;4.82;3.00;;;;;;;-0.90;81.15;98743.19;4900279;29;20044;-69
2022/11/22 07:28:24;;;;;;;10.30;4.72;;;;;;;-1.08;80.80;98741.31;4911876;28;20047;-69
2022/11/22 07:30:49;;;;;;;6.15;3.50;;;;;;;-0.98;80.99;98742.66;4921213;28;20130;-70
2022/11/22 07:33:13;;;;;;;8.00;3.97;;;;;;;-1.00;80.85;98732.25;4895321;29;20051;-69
2022/11/22 07:35:38;;;;;;;4.53;2.65;;;;;;;-1.01;81.30;98735.75;4914869;28;20042;-70
2022/11/22 07:38:03;;;;;;;3.72;2.38;;;;;;;-0.91;81.78;98736.28;4903569;28;20058;-70
2022/11/22 07:40:27;;;;;;;6.25;4.25;;;;;;;-0.96;81.53;98727.75;4921562;28;20043;-72
2022/11/22 07:42:52;;;;;;;8.13;3.45;;;;;;;-0.84;81.55;98732.50;4920053;28;20043;-69
2022/11/22 07:45:18;;;;;;;4.25;2.88;;;;;;;-0.76;81.29;98738.25;4884442;29;20047;-69
2022/11/22 07:47:43;;;;;;;7.10;3.72;;;;;;;-0.86;81.29;98726.47;4911349;28;20054;-69
2022/11/22 07:50:08;;;;;;;8.55;3.90;;;;;;;-0.82;81.28;98733.28;4884076;29;20043;-69
2022/11/22 07:52:33;;;;;;;5.38;3.33;;;;;;;-0.86;81.60;98731.69;4876992;29;20154;-70
2022/11/22 07:54:57;;;;;;;6.00;3.05;;;;;;;-0.80;81.88;98729.72;4920253;28;20058;-71
2022/11/22 07:57:22;;;;;;;3.55;2.08;;;;;;;-0.57;82.10;98731.38;4896315;29;20499;-72
2022/11/22 07:59:47;;;;;;;5.80;3.25;;;;;;;-0.58;81.70;98740.16;4900197;29;20035;-71
2022/11/22 08:02:11;;;;;;;5.15;3.08;;;;;;;-0.73;81.28;98730.28;4917608;28;20043;-68
2022/11/22 08:04:36;;;;;;;8.50;3.88;;;;;;;-0.70;81.69;98747.66;4919773;28;20043;-69
2022/11/22 08:07:00;;;;;;;3.78;2.42;;;;;;;-0.54;81.81;98746.94;4902571;28;20055;-69
2022/11/22 08:09:25;;;;;;;5.90;2.65;;;;;;;-0.48;81.46;98746.72;4899366;29;20035;-69
2022/11/22 08:11:49;;;;;;;8.23;3.60;;;;;;;-0.49;81.62;98734.53;4897151;29;20636;-69
2022/11/22 08:14:14;;;;;;;2.60;1.85;;;;;;;-0.47;81.80;98740.56;4906280;28;20125;-69
2022/11/22 08:16:39;;;;;;;4.07;2.92;;;;;;;-0.42;81.67;98733.34;4919516;28;20470;-68
2022/11/22 08:19:03;;;;;;;3.30;1.83;;;;;;;-0.37;81.92;98707.00;4919527;28;20047;-71
2022/11/22 08:21:28;;;;;;;3.63;2.13;;;;;;;-0.42;81.94;98712.41;4919591;28;20047;-71
2022/11/22 08:23:57;;;;;;;4.85;3.10;;;;;;;-0.21;81.99;98730.75;4886507;28;20047;-70
2022/11/22 08:26:22;;;;;;;7.03;2.53;;;;;;;-0.30;82.00;98725.91;4902473;29;20516;-66
2022/11/22 08:28:47;;;;;;;3.40;2.53;;;;;;;-0.20;81.98;98711.50;4902614;29;20510;-66
2022/11/22 08:31:14;;;;;;;5.00;3.80;;;;;;;-0.32;81.57;98722.50;4919502;28;20045;-66
2022/11/22 08:33:39;;;;;;;3.92;2.80;;;;;;;-0.30;82.17;98710.19;4875557;29;20503;-67
2022/11/22 08:36:05;;;;;;;3.95;2.13;;;;;;;-0.23;82.12;98720.34;4898981;29;20067;-68
2022/11/22 08:38:29;;;;;;;5.40;3.70;;;;;;;-0.47;82.03;98714.38;4901562;29;20046;-68
2022/11/22 08:40:54;;;;;;;5.78;3.80;;;;;;;-0.58;82.36;98713.13;4919269;28;20117;-67
2022/11/22 08:43:19;;;;;;;4.05;2.53;;;;;;;-0.30;82.82;98710.19;4919196;28;20119;-66
2022/11/22 08:45:43;;;;;;;4.80;3.47;;;;;;;-0.16;82.22;98697.34;4902361;29;20074;-66
2022/11/22 08:48:08;;;;;;;6.15;3.90;;;;;;;-0.27;81.66;98692.59;4918505;28;20043;-67
2022/11/22 08:50:33;;;;;;;4.88;2.70;;;;;;;-0.22;82.03;98680.13;4895549;29;20050;-67
2022/11/22 08:52:59;;;;;;;2.75;2.38;;;;;;;-0.19;81.99;98694.88;4912707;28;20043;-66
2022/11/22 08:55:24;;;;;;;4.82;3.10;;;;;;;-0.38;82.39;98693.03;4902240;29;20049;-66
2022/11/22 08:57:48;;;;;;;4.50;3.38;;;;;;;-0.49;82.27;98690.03;4901812;29;20131;-66
2022/11/22 09:00:14;;;;;;;4.28;3.22;;;;;;;-0.41;82.47;98695.78;4918468;28;20046;-67
2022/11/22 09:02:38;;;;;;;4.40;3.42;;;;;;;-0.42;82.99;98691.47;4918837;28;20090;-65
2022/11/22 09:05:03;;;;;;;6.80;5.80;;;;;;;-0.47;82.82;98679.50;4918684;28;20050;-67
2022/11/22 09:07:29;;;;;;;13.70;3.90;;;;;;;-0.51;82.92;98699.72;4918569;28;20054;-66
2022/11/22 09:09:53;;;;;;;4.50;3.00;;;;;;;-0.41;82.89;98679.22;4918594;28;20062;-66
2022/11/22 09:12:18;;;;;;;5.57;2.17;;;;;;;-0.38;83.15;98676.47;4898153;29;20085;-65
2022/11/22 09:14:43;;;;;;;6.25;3.05;;;;;;;-0.29;83.46;98689.16;4908931;28;20047;-65
2022/11/22 09:17:07;;;;;;;7.25;3.78;;;;;;;-0.35;83.24;98693.84;4918085;28;20454;-67
2022/11/22 09:19:32;;;;;;;3.25;1.83;;;;;;;-0.16;83.22;98679.03;4900790;29;20085;-66
2022/11/22 09:21:56;;;;;;;4.97;2.75;;;;;;;-0.26;82.95;98688.19;4918296;28;20043;-65
2022/11/22 09:24:21;;;;;;;2.90;1.90;;;;;;;-0.15;82.75;98680.72;4918267;28;20719;-66
2022/11/22 09:26:46;;;;;;;6.95;3.53;;;;;;;-0.27;82.87;98681.25;4901394;29;20043;-66
2022/11/22 09:29:10;;;;;;;10.63;3.08;;;;;;;-0.29;83.11;98677.84;4922021;28;20051;-71
2022/11/22 09:31:35;;;;;;;7.80;3.60;;;;;;;-0.37;82.88;98670.31;4893868;29;20044;-71
2022/11/22 09:34:00;;;;;;;3.70;3.00;;;;;;;-0.23;83.54;98667.13;4913511;28;20043;-72
2022/11/22 09:36:28;;;;;;;5.03;1.98;;;;;;;-0.21;83.65;98670.50;4900419;28;20047;-71
2022/11/22 09:38:53;;;;;;;6.82;4.30;;;;;;;-0.21;83.58;98676.59;4900980;29;20142;-70
2022/11/22 09:41:54;;;;;;;2.55;1.77;;;;;;;0.00;83.64;98674.81;4917363;28;20131;-71
2022/11/22 09:44:57;;;;;;;2.90;2.38;;;;;;;0.02;83.29;98669.50;4917131;28;20426;-70
2022/11/22 09:47:28;;;;;;;4.63;2.85;;;;;;;-0.13;83.11;98664.03;4859241;29;20059;-72
2022/11/22 09:50:11;;;;;;;1.83;1.73;;;;;;;-0.08;83.35;98671.66;4859205;29;20090;-71
2022/11/22 09:52:45;;;;;;;4.65;2.60;;;;;;;-0.18;83.86;98671.22;4859622;29;20848;-72
2022/11/22 09:55:21;;;;;;;5.25;3.20;;;;;;;-0.23;83.85;98669.75;4856521;29;20558;-72
2022/11/22 09:57:55;;;;;;;8.15;3.90;;;;;;;-0.24;84.34;98671.50;4856045;29;20053;-73
2022/11/22 10:00:24;;;;;;;2.47;1.60;;;;;;;-0.02;84.13;98667.03;4868890;29;20053;-72
2022/11/22 10:02:58;;;;;;;6.50;4.43;;;;;;;-0.15;83.90;98681.56;4834452;29;20754;-72
2022/11/22 10:05:28;;;;;;;7.78;4.00;;;;;;;-0.13;84.06;98682.38;4858764;29;20078;-73
2022/11/22 10:08:12;;;;;;;6.88;4.15;;;;;;;-0.06;83.97;98672.47;4858776;29;20183;-71
2022/11/22 10:10:42;;;;;;;4.40;3.45;;;;;;;-0.05;84.36;98667.16;4858935;29;20051;-72
2022/11/22 10:13:17;;;;;;;8.23;5.30;;;;;;;-0.07;84.14;98663.75;4843466;29;20060;-72
2022/11/22 10:15:58;;;;;;;;;;;;;;;0.06;84.00;98663.22;4859061;29;20048;-70
2022/11/22 10:18:33;;;;;;;4.00;3.17;;;;;;;0.15;83.78;98663.63;4843225;29;20018;-73
2022/11/22 10:20:57;;;;;;;6.53;4.38;;;;;;;-0.02;83.71;98655.69;4872190;29;20531;-73
2022/11/22 10:23:23;;;;;;;9.45;4.95;;;;;;;-0.08;84.05;98650.72;4849575;29;20499;-72
2022/11/22 10:26:04;;;;;;;5.63;4.25;;;;;;;-0.04;84.44;98653.13;4898550;29;20129;-71
2022/11/22 10:29:15;;;;;;;3.72;2.58;;;;;;;0.06;84.10;98643.09;4898534;29;20054;-71
2022/11/22 10:31:42;;;;;;;8.02;4.22;;;;;;;0.18;84.51;98673.13;4858439;29;20040;-70
2022/11/22 10:34:13;;;;;;;4.65;3.15;;;;;;;0.11;83.75;98650.75;4843131;29;20104;-73
2022/11/22 10:36:48;;;;;;;2.58;1.65;;;;;;;0.03;84.01;98648.47;4845653;29;20086;-73
2022/11/22 10:39:23;;;;;;;5.28;3.80;;;;;;;0.24;84.50;98641.41;4848359;29;20139;-72
2022/11/22 10:41:57;;;;;;;3.97;2.95;;;;;;;0.28;84.24;98650.81;4842928;29;20041;-71
2022/11/22 10:44:40;;;;;;;2.83;1.90;;;;;;;0.19;84.19;98633.75;4858458;29;20055;-72
2022/11/22 10:47:07;;;;;;;3.35;2.67;;;;;;;0.15;83.89;98660.16;4858730;29;20047;-72
2022/11/22 10:49:32;;;;;;;5.90;3.58;;;;;;;0.13;84.50;98622.69;4858089;29;20060;-72
2022/11/22 10:52:15;;;;;;;5.00;3.30;;;;;;;-0.01;84.55;98620.72;4845287;29;20040;-73
2022/11/22 10:55:02;;;;;;;5.63;3.70;;;;;;;-0.05;84.86;98619.16;4833933;29;20087;-71
2022/11/22 10:57:45;;;;;;;5.15;2.70;;;;;;;0.05;84.63;98609.94;4840139;29;20041;-72
2022/11/22 11:00:18;;;;;;;4.70;2.80;;;;;;;0.10;85.14;98618.47;4839794;29;20124;-71
2022/11/22 11:02:51;;;;;;;3.85;2.85;;;;;;;0.00;85.06;98618.00;4839894;29;20041;-71
2022/11/22 11:05:22;;;;;;;4.43;2.40;;;;;;;-0.02;85.12;98604.16;4840123;29;20045;-69
2022/11/22 11:07:50;;;;;;;3.75;2.95;;;;;;;-0.01;85.48;98610.25;4849416;29;20525;-72
2022/11/22 11:10:18;;;;;;;3.53;3.03;;;;;;;0.04;85.08;98603.00;4897055;29;20107;-72
2022/11/22 11:13:05;;;;;;;3.45;2.30;;;;;;;0.13;85.10;98610.44;4898893;29;20051;-74
2022/11/22 11:16:11;;;;;;;2.45;1.63;;;;;;;0.15;84.89;98613.84;4884384;29;20110;-73
2022/11/22 11:18:56;;;;;;;4.68;3.63;;;;;;;0.15;84.78;98590.25;4884379;29;20460;-72
2022/11/22 11:21:21;;;;;;;3.25;2.53;;;;;;;0.19;84.63;98596.22;4840857;29;20052;-73
2022/11/22 11:23:47;;;;;;;3.25;2.88;;;;;;;0.17;84.98;98616.41;4861765;29;20056;-73
2022/11/22 11:26:18;;;;;;;4.53;2.88;;;;;;;0.17;84.97;98606.78;4853829;29;20052;-72
2022/11/22 11:28:43;;;;;;;2.70;2.13;;;;;;;0.25;84.84;98606.41;4867208;29;20048;-71
2022/11/22 11:31:09;;;;;;;3.40;1.75;;;;;;;0.26;84.79;98611.59;4848946;29;20048;-70
2022/11/22 11:33:37;;;;;;;4.57;3.45;;;;;;;0.05;84.68;98602.09;4868002;29;20507;-73
2022/11/22 11:36:09;;;;;;;5.03;3.67;;;;;;;0.11;84.85;98601.81;4874245;29;20519;-74
2022/11/22 11:38:49;;;;;;;3.53;2.95;;;;;;;0.06;85.08;98603.78;4861671;29;20044;-72